• Join FlightAware (Why Join?)
  • Login
  • US Flag 
05:05AM EDT


 

Airport Tracker/Info


-or-


 

Live Flight TrackerFlight Track Log ✈ AAL408 ✈ 20-Jun-2013 ✈ KORD - KPHL

Flight Track Log - Related Links

Times and Time Zones

All times are in EDT time to prevent confusion due to time zone crossing. See the AAL408 flight status page for this flight to view local times or setup timezone preferences in your user account.

Time Position Orientation Groundspeed Altitude Reporting Facility
EDT Latitude Longitude Course Direction KTS MPH feet Rate Location/Type
07:38PM 41.9167 -87.9333 84° East 210 242 3,000  Level Chicago TRACON
07:39PM 41.8914 -87.8703 118° Southeast 232 267 4,700 960 Climbing Chicago Center
07:40PM 41.9536 -87.4069 95° East  Level FlightAware Approximate
07:40PM 41.8981 -87.7431 86° East 271 312 5,000  Level Chicago Center
07:41PM 41.9418 -87.2431 96° East  Level FlightAware Approximate
07:41PM 41.9042 -87.6383 85° East 279 321 5,500  Level Chicago Center
07:42PM 41.9333 -87.0792 90° East  Level FlightAware Approximate
07:42PM 41.9119 -87.5319 84° East 286 329 8,500  Level Chicago Center
07:43PM 41.9335 -86.9146 84° East  Level FlightAware Approximate
07:43PM 41.9192 -87.4211 85° East 295 339 11,300  Level Chicago Center
07:44PM 41.9269 -87.3044 85° East 307 353 13,700 1,800 Climbing Chicago Center
07:45PM 41.9397 -87.1425 84° East 363 418 15,100 1,380 Climbing Chicago Center
07:46PM 41.9461 -86.9867 87° East 408 470 16,600 1,680 Climbing Chicago Center
07:47PM 41.9481 -86.8192 89° East 439 505 18,600 1,980 Climbing Chicago Center
07:49PM 41.9506 -86.6389 89° East 457 526 20,800 1,800 Climbing Chicago Center
07:50PM 41.9519 -86.4633 89° East 467 537 22,400 1,560 Climbing Chicago Center
07:51PM 41.9547 -86.2808 89° East 484 557 24,100 1,920 Climbing Chicago Center
07:52PM 41.9461 -86.0989 94° East 487 560 26,500 2,040 Climbing Chicago Center
07:53PM 41.9289 -85.9236 97° East 478 550 28,400 2,100 Climbing Chicago Center
07:54PM 41.9100 -85.7153 97° East 470 541 30,900 1,740 Climbing Chicago Center
07:55PM 41.8944 -85.5481 97° East 454 522 32,100 960 Climbing Chicago Center
07:56PM 41.8789 -85.3775 97° East 454 522 33,000 420 Climbing Chicago Center
07:57PM 41.8614 -85.2067 98° East 456 525 33,000  Level Chicago Center
07:58PM 41.8439 -85.0364 98° East 456 525 33,000  Level Chicago Center
07:59PM 41.8269 -84.8683 98° East 457 526 33,100 480 Climbing Chicago Center
08:00PM 41.8081 -84.6983 98° East 459 528 34,000 900 Climbing Chicago Center
08:01PM 41.7919 -84.5300 97° East 451 519 34,900 480 Climbing Cleveland Center
08:02PM 41.7786 -84.3675 96° East 446 513 35,000  Climbing Cleveland Center
08:03PM 41.7386 -84.1897 107° East 451 519 35,000  Level Cleveland Center
08:04PM 41.7039 -84.0264 106° East 456 525 35,000  Level Cleveland Center
08:05PM 41.6711 -83.8664 105° East 456 525 35,000  Level Cleveland Center
08:06PM 41.6361 -83.7006 106° East 456 525 35,000  Level Cleveland Center
08:07PM 41.5986 -83.5406 107° East 456 525 35,000  Level Cleveland Center
08:08PM 41.5672 -83.3808 105° East 456 525 35,000  Level Cleveland Center
08:09PM 41.5314 -83.2211 107° East 456 525 35,000  Level Cleveland Center
08:10PM 41.4992 -83.0756 106° East 450 518 35,000  Level Cleveland Center
08:11PM 41.4653 -82.9108 105° East 457 526 35,000  Level Cleveland Center
08:12PM 41.4286 -82.7517 107° East 452 520 35,000  Level Cleveland Center
08:13PM 41.3881 -82.5731 107° East 452 520 35,000  Level Cleveland Center
08:14PM 41.3511 -82.4117 107° East 452 520 35,000  Level Cleveland Center
08:15PM 41.3142 -82.2528 107° East 452 520 35,000  Level Cleveland Center
08:16PM 41.2789 -82.0861 106° East 457 526 35,000  Level Cleveland Center
08:17PM 41.2433 -81.9225 106° East 462 532 35,000  Level Cleveland Center
08:18PM 41.2033 -81.7617 108° East 462 532 35,000  Level Cleveland Center
08:19PM 41.1653 -81.6008 107° East 462 532 35,000  Level Cleveland Center
08:20PM 41.1231 -81.4375 109° East 462 532 35,000  Level Cleveland Center
08:21PM 41.0822 -81.2744 108° East 470 541 35,000  Level Cleveland Center
08:23PM 41.0131 -80.9683 107° East 460 529 35,000  Level Cleveland Center
08:24PM 40.9736 -80.8058 108° East 460 529 35,000  Level Cleveland Center
08:25PM 40.9322 -80.6408 108° East 460 529 35,000  Level Cleveland Center
08:26PM 40.8925 -80.4789 108° East 460 529 35,000  Level Cleveland Center
08:27PM 40.8506 -80.3197 109° East 460 529 35,000  Level Cleveland Center
08:28PM 40.8044 -80.1606 111° Southeast 460 529 35,000  Level Cleveland Center
08:29PM 40.7494 -80.0075 115° Southeast 466 536 35,000  Level Cleveland Center
08:30PM 40.6944 -79.8492 115° Southeast 466 536 35,000  Level Cleveland Center
08:31PM 40.6392 -79.6967 115° Southeast 466 536 35,000  Level Cleveland Center
08:32PM 40.5814 -79.5417 116° Southeast 466 536 35,000  Level Cleveland Center
08:33PM 40.5486 -79.3753 104° East 466 536 35,000  Level Cleveland Center
08:34PM 40.5281 -79.2119 99° East 461 531 35,000  Level Cleveland Center
08:35PM 40.5108 -79.0211 97° East 468 539 35,000  Level Cleveland Center
08:36PM 40.4939 -78.8550 98° East 468 539 35,000  Level Cleveland Center
08:37PM 40.4786 -78.6806 97° East 468 539 35,000 -540 Level Cleveland Center
08:38PM 40.4589 -78.5092 99° East 468 539 34,000 -1,800 Descending Cleveland Center
08:39PM 40.4403 -78.3339 98° East 462 532 31,400 -3,060 Descending New York Center
08:40PM 40.4242 -78.1603 97° East 486 559 27,700 -3,180 Descending New York Center
08:41PM 40.4047 -78.0028 99° East 486 559 25,100 -1,440 Descending New York Center
08:42PM 40.3819 -77.8286 100° East 486 559 24,800 -1,020 Descending New York Center
08:43PM 40.3589 -77.6519 100° East 491 565 23,100 -1,560 Descending New York Center
08:44PM 40.3356 -77.4806 100° East 486 559 21,800 -1,380 Descending New York Center
08:45PM 40.3117 -77.3094 100° East 486 559 20,400 -1,380 Descending New York Center
08:46PM 40.2861 -77.1300 101° East 466 536 19,000 -720 Descending New York Center
08:47PM 40.2661 -76.9978 101° East 433 498 19,000 -540 Level New York Center
08:48PM 40.2469 -76.8464 99° East 425 489 18,000 -1,500 Descending New York Center
08:49PM 40.2231 -76.7000 102° East 412 474 16,000 -2,160 Descending New York Center
08:50PM 40.2017 -76.5433 100° East 395 455 13,700 -2,160 Descending New York Center
08:51PM 40.1831 -76.4086 100° East 383 441 11,800 -1,380 Descending New York Center
08:52PM 40.1619 -76.2819 102° East 369 425 11,000 -600 Descending New York Center
08:53PM 40.1461 -76.1719 101° East 352 405 10,700 -840 Descending New York Center
08:54PM 40.1306 -76.0542 100° East 308 354 9,400 -1,320 Descending New York Center
08:55PM 40.1144 -75.9525 102° East 289 333 8,100 -720 Descending New York Center
08:56PM 40.0958 -75.8506 103° East 283 326 8,000 -60 Descending New York Center
08:57PM 40.0794 -75.7489 102° East 283 326 8,000  Level New York Center
08:58PM 40.0753 -75.6456 93° East 278 320 8,000 -60 Level New York Center
08:59PM 40.0692 -75.5422 94° East 283 326 7,900 -540 Descending New York Center
09:00PM 40.0664 -75.4525 92° East 283 326 7,000 -960 Descending New York Center
09:01PM 40.0606 -75.3408 94° East 278 320 6,000 -840 Descending New York Center
09:02PM 40.0453 -75.2450 102° East 273 314 5,400 -960 Descending New York Center
09:03PM 40.0233 -75.1622 109° East 273 314 4,100 -1,320 Descending New York Center
09:04PM 39.9869 -75.0814 120° Southeast 255 293 2,800 -1,320 Descending New York Center
09:05PM 39.9500 -75.0833 182° South 192 221 2,100 -1,260 Descending Philadelphia TRACON